sensor_id;sensor_type;location;lat;lon;timestamp;P1;durP1;ratioP1;P2;durP2;ratioP2
15595;SDS011;7898;48.658;9.068;2022-08-06T00:00:12;2.42;;;2.13;;
15595;SDS011;7898;48.658;9.068;2022-08-06T00:02:39;3.83;;;1.92;;
15595;SDS011;7898;48.658;9.068;2022-08-06T00:05:06;2.92;;;1.98;;
15595;SDS011;7898;48.658;9.068;2022-08-06T00:07:35;3.00;;;1.90;;
15595;SDS011;7898;48.658;9.068;2022-08-06T00:10:02;4.32;;;2.10;;
15595;SDS011;7898;48.658;9.068;2022-08-06T00:12:30;2.75;;;2.00;;
15595;SDS011;7898;48.658;9.068;2022-08-06T00:14:59;2.72;;;1.95;;
15595;SDS011;7898;48.658;9.068;2022-08-06T00:17:26;2.45;;;1.80;;
15595;SDS011;7898;48.658;9.068;2022-08-06T00:19:53;3.10;;;1.70;;
15595;SDS011;7898;48.658;9.068;2022-08-06T00:22:20;3.33;;;2.00;;
15595;SDS011;7898;48.658;9.068;2022-08-06T00:24:48;2.00;;;1.80;;
15595;SDS011;7898;48.658;9.068;2022-08-06T00:27:15;3.53;;;2.00;;
15595;SDS011;7898;48.658;9.068;2022-08-06T00:29:42;2.13;;;1.90;;
15595;SDS011;7898;48.658;9.068;2022-08-06T00:32:09;4.53;;;2.10;;
15595;SDS011;7898;48.658;9.068;2022-08-06T00:34:36;4.93;;;2.30;;
15595;SDS011;7898;48.658;9.068;2022-08-06T00:37:03;2.75;;;1.98;;
15595;SDS011;7898;48.658;9.068;2022-08-06T00:39:29;3.22;;;1.70;;
15595;SDS011;7898;48.658;9.068;2022-08-06T00:41:58;2.13;;;1.90;;
15595;SDS011;7898;48.658;9.068;2022-08-06T00:44:25;4.22;;;2.10;;
15595;SDS011;7898;48.658;9.068;2022-08-06T00:46:52;2.20;;;1.75;;
15595;SDS011;7898;48.658;9.068;2022-08-06T00:49:19;2.47;;;1.98;;
15595;SDS011;7898;48.658;9.068;2022-08-06T00:51:46;4.22;;;2.30;;
15595;SDS011;7898;48.658;9.068;2022-08-06T00:54:13;1.95;;;1.60;;
15595;SDS011;7898;48.658;9.068;2022-08-06T00:56:39;2.42;;;2.13;;
15595;SDS011;7898;48.658;9.068;2022-08-06T00:59:08;2.15;;;1.77;;
15595;SDS011;7898;48.658;9.068;2022-08-06T01:01:35;2.97;;;2.20;;
15595;SDS011;7898;48.658;9.068;2022-08-06T01:04:02;3.42;;;1.98;;
15595;SDS011;7898;48.658;9.068;2022-08-06T01:06:29;1.80;;;1.70;;
15595;SDS011;7898;48.658;9.068;2022-08-06T01:08:56;1.85;;;1.75;;
15595;SDS011;7898;48.658;9.068;2022-08-06T01:11:23;3.33;;;2.03;;
15595;SDS011;7898;48.658;9.068;2022-08-06T01:13:50;2.05;;;1.85;;
15595;SDS011;7898;48.658;9.068;2022-08-06T01:16:21;2.67;;;2.03;;
15595;SDS011;7898;48.658;9.068;2022-08-06T01:18:54;1.75;;;1.63;;
15595;SDS011;7898;48.658;9.068;2022-08-06T01:21:38;1.80;;;1.70;;
15595;SDS011;7898;48.658;9.068;2022-08-06T01:24:22;3.45;;;2.00;;
15595;SDS011;7898;48.658;9.068;2022-08-06T01:27:00;5.53;;;2.15;;
15595;SDS011;7898;48.658;9.068;2022-08-06T01:30:02;2.35;;;1.90;;
15595;SDS011;7898;48.658;9.068;2022-08-06T01:32:32;3.70;;;1.90;;
15595;SDS011;7898;48.658;9.068;2022-08-06T01:35:04;3.65;;;1.80;;
15595;SDS011;7898;48.658;9.068;2022-08-06T01:37:36;2.25;;;1.95;;
15595;SDS011;7898;48.658;9.068;2022-08-06T01:40:09;3.05;;;2.08;;
15595;SDS011;7898;48.658;9.068;2022-08-06T01:42:40;4.03;;;1.70;;
15595;SDS011;7898;48.658;9.068;2022-08-06T01:45:11;2.10;;;2.00;;
15595;SDS011;7898;48.658;9.068;2022-08-06T01:47:40;1.90;;;1.70;;
15595;SDS011;7898;48.658;9.068;2022-08-06T01:50:10;5.07;;;2.05;;
15595;SDS011;7898;48.658;9.068;2022-08-06T01:52:39;2.15;;;1.60;;
15595;SDS011;7898;48.658;9.068;2022-08-06T01:55:09;2.05;;;1.90;;
15595;SDS011;7898;48.658;9.068;2022-08-06T01:57:42;2.25;;;1.85;;
15595;SDS011;7898;48.658;9.068;2022-08-06T02:00:11;4.55;;;1.80;;
15595;SDS011;7898;48.658;9.068;2022-08-06T02:02:39;4.18;;;1.83;;
15595;SDS011;7898;48.658;9.068;2022-08-06T02:05:08;2.22;;;1.80;;
15595;SDS011;7898;48.658;9.068;2022-08-06T02:07:39;2.50;;;1.80;;
15595;SDS011;7898;48.658;9.068;2022-08-06T02:10:08;6.25;;;2.03;;
15595;SDS011;7898;48.658;9.068;2022-08-06T02:12:37;3.17;;;2.00;;
15595;SDS011;7898;48.658;9.068;2022-08-06T02:15:11;3.92;;;2.10;;
15595;SDS011;7898;48.658;9.068;2022-08-06T02:17:43;2.30;;;1.70;;
15595;SDS011;7898;48.658;9.068;2022-08-06T02:20:14;1.95;;;1.77;;
15595;SDS011;7898;48.658;9.068;2022-08-06T02:22:45;2.22;;;1.98;;
15595;SDS011;7898;48.658;9.068;2022-08-06T02:25:13;2.92;;;1.95;;
15595;SDS011;7898;48.658;9.068;2022-08-06T02:27:44;2.13;;;1.80;;
15595;SDS011;7898;48.658;9.068;2022-08-06T02:30:14;3.00;;;1.70;;
15595;SDS011;7898;48.658;9.068;2022-08-06T02:32:41;3.00;;;1.60;;
15595;SDS011;7898;48.658;9.068;2022-08-06T02:35:09;2.42;;;1.52;;
15595;SDS011;7898;48.658;9.068;2022-08-06T02:37:38;1.75;;;1.50;;
15595;SDS011;7898;48.658;9.068;2022-08-06T02:40:14;4.35;;;2.08;;
15595;SDS011;7898;48.658;9.068;2022-08-06T02:42:48;4.65;;;1.92;;
15595;SDS011;7898;48.658;9.068;2022-08-06T02:45:19;1.98;;;1.77;;
15595;SDS011;7898;48.658;9.068;2022-08-06T02:47:54;3.72;;;1.85;;
15595;SDS011;7898;48.658;9.068;2022-08-06T02:50:27;3.55;;;2.00;;
15595;SDS011;7898;48.658;9.068;2022-08-06T02:53:01;2.70;;;1.73;;
15595;SDS011;7898;48.658;9.068;2022-08-06T02:55:30;4.05;;;1.90;;
15595;SDS011;7898;48.658;9.068;2022-08-06T02:58:04;2.40;;;1.75;;
15595;SDS011;7898;48.658;9.068;2022-08-06T03:00:36;4.05;;;2.00;;
15595;SDS011;7898;48.658;9.068;2022-08-06T03:03:07;3.08;;;2.20;;
15595;SDS011;7898;48.658;9.068;2022-08-06T03:05:36;2.45;;;2.20;;
15595;SDS011;7898;48.658;9.068;2022-08-06T03:08:04;3.25;;;1.80;;
15595;SDS011;7898;48.658;9.068;2022-08-06T03:10:33;2.25;;;1.70;;
15595;SDS011;7898;48.658;9.068;2022-08-06T03:13:02;1.95;;;1.70;;
15595;SDS011;7898;48.658;9.068;2022-08-06T03:15:31;3.47;;;2.05;;
15595;SDS011;7898;48.658;9.068;2022-08-06T03:18:00;2.47;;;1.88;;
15595;SDS011;7898;48.658;9.068;2022-08-06T03:20:29;2.15;;;1.70;;
15595;SDS011;7898;48.658;9.068;2022-08-06T03:22:57;3.70;;;1.85;;
15595;SDS011;7898;48.658;9.068;2022-08-06T03:25:26;2.38;;;1.95;;
15595;SDS011;7898;48.658;9.068;2022-08-06T03:27:55;2.15;;;1.92;;
15595;SDS011;7898;48.658;9.068;2022-08-06T03:30:24;2.45;;;1.73;;
15595;SDS011;7898;48.658;9.068;2022-08-06T03:32:53;2.28;;;1.98;;
15595;SDS011;7898;48.658;9.068;2022-08-06T03:35:20;2.55;;;1.92;;
15595;SDS011;7898;48.658;9.068;2022-08-06T03:37:48;2.25;;;1.95;;
15595;SDS011;7898;48.658;9.068;2022-08-06T03:40:17;4.43;;;2.00;;
15595;SDS011;7898;48.658;9.068;2022-08-06T03:42:48;2.38;;;1.90;;
15595;SDS011;7898;48.658;9.068;2022-08-06T03:45:15;2.95;;;2.15;;
15595;SDS011;7898;48.658;9.068;2022-08-06T03:47:46;3.55;;;2.30;;
15595;SDS011;7898;48.658;9.068;2022-08-06T03:50:18;3.83;;;1.77;;
15595;SDS011;7898;48.658;9.068;2022-08-06T03:52:48;4.32;;;2.40;;
15595;SDS011;7898;48.658;9.068;2022-08-06T03:55:26;2.30;;;2.00;;
15595;SDS011;7898;48.658;9.068;2022-08-06T03:57:57;3.10;;;1.67;;
15595;SDS011;7898;48.658;9.068;2022-08-06T04:00:28;2.42;;;2.00;;
15595;SDS011;7898;48.658;9.068;2022-08-06T04:03:14;2.35;;;1.95;;
15595;SDS011;7898;48.658;9.068;2022-08-06T04:05:43;2.70;;;2.00;;
15595;SDS011;7898;48.658;9.068;2022-08-06T04:08:10;2.92;;;1.90;;
15595;SDS011;7898;48.658;9.068;2022-08-06T04:10:39;3.33;;;1.83;;
15595;SDS011;7898;48.658;9.068;2022-08-06T04:13:09;2.13;;;1.92;;
15595;SDS011;7898;48.658;9.068;2022-08-06T04:15:39;3.38;;;2.00;;
15595;SDS011;7898;48.658;9.068;2022-08-06T04:18:08;2.88;;;1.90;;
15595;SDS011;7898;48.658;9.068;2022-08-06T04:20:37;2.70;;;1.88;;
15595;SDS011;7898;48.658;9.068;2022-08-06T04:23:06;2.30;;;2.00;;
15595;SDS011;7898;48.658;9.068;2022-08-06T04:25:34;3.17;;;2.20;;
15595;SDS011;7898;48.658;9.068;2022-08-06T04:28:03;3.78;;;2.20;;
15595;SDS011;7898;48.658;9.068;2022-08-06T04:30:32;2.03;;;1.88;;
15595;SDS011;7898;48.658;9.068;2022-08-06T04:33:01;1.67;;;1.58;;
15595;SDS011;7898;48.658;9.068;2022-08-06T04:35:29;2.30;;;2.10;;
15595;SDS011;7898;48.658;9.068;2022-08-06T04:37:58;2.92;;;1.73;;
15595;SDS011;7898;48.658;9.068;2022-08-06T04:40:27;2.58;;;2.38;;
15595;SDS011;7898;48.658;9.068;2022-08-06T04:42:54;4.72;;;1.63;;
15595;SDS011;7898;48.658;9.068;2022-08-06T04:45:22;1.98;;;1.88;;
15595;SDS011;7898;48.658;9.068;2022-08-06T04:47:50;2.47;;;1.90;;
15595;SDS011;7898;48.658;9.068;2022-08-06T04:50:18;2.45;;;2.05;;
15595;SDS011;7898;48.658;9.068;2022-08-06T04:52:45;3.25;;;2.17;;
15595;SDS011;7898;48.658;9.068;2022-08-06T04:55:14;3.70;;;2.03;;
15595;SDS011;7898;48.658;9.068;2022-08-06T04:57:43;3.40;;;2.15;;
15595;SDS011;7898;48.658;9.068;2022-08-06T05:00:10;8.98;;;2.00;;
15595;SDS011;7898;48.658;9.068;2022-08-06T05:02:38;2.95;;;2.22;;
15595;SDS011;7898;48.658;9.068;2022-08-06T05:05:05;5.50;;;2.13;;
15595;SDS011;7898;48.658;9.068;2022-08-06T05:07:35;2.28;;;2.08;;
15595;SDS011;7898;48.658;9.068;2022-08-06T05:10:04;2.70;;;1.90;;
15595;SDS011;7898;48.658;9.068;2022-08-06T05:12:35;2.33;;;1.85;;
15595;SDS011;7898;48.658;9.068;2022-08-06T05:15:06;3.10;;;2.20;;
15595;SDS011;7898;48.658;9.068;2022-08-06T05:17:38;2.92;;;2.28;;
15595;SDS011;7898;48.658;9.068;2022-08-06T05:20:11;4.95;;;2.28;;
15595;SDS011;7898;48.658;9.068;2022-08-06T05:22:40;3.13;;;2.00;;
15595;SDS011;7898;48.658;9.068;2022-08-06T05:25:11;5.20;;;2.30;;
15595;SDS011;7898;48.658;9.068;2022-08-06T05:27:40;2.92;;;1.98;;
15595;SDS011;7898;48.658;9.068;2022-08-06T05:30:08;3.60;;;2.28;;
15595;SDS011;7898;48.658;9.068;2022-08-06T05:32:42;1.85;;;1.75;;
15595;SDS011;7898;48.658;9.068;2022-08-06T05:35:10;3.95;;;2.05;;
15595;SDS011;7898;48.658;9.068;2022-08-06T05:37:37;2.83;;;1.85;;
15595;SDS011;7898;48.658;9.068;2022-08-06T05:40:04;2.03;;;1.80;;
15595;SDS011;7898;48.658;9.068;2022-08-06T05:42:32;2.60;;;2.40;;
15595;SDS011;7898;48.658;9.068;2022-08-06T05:45:00;4.07;;;2.47;;
15595;SDS011;7898;48.658;9.068;2022-08-06T05:47:28;4.03;;;2.00;;
15595;SDS011;7898;48.658;9.068;2022-08-06T05:50:02;4.97;;;2.40;;
15595;SDS011;7898;48.658;9.068;2022-08-06T05:52:34;2.35;;;2.15;;
15595;SDS011;7898;48.658;9.068;2022-08-06T05:55:08;3.50;;;2.20;;
15595;SDS011;7898;48.658;9.068;2022-08-06T05:57:42;4.30;;;2.60;;
15595;SDS011;7898;48.658;9.068;2022-08-06T06:00:16;2.85;;;2.03;;
15595;SDS011;7898;48.658;9.068;2022-08-06T06:02:45;4.30;;;2.05;;
15595;SDS011;7898;48.658;9.068;2022-08-06T06:05:16;3.58;;;2.47;;
15595;SDS011;7898;48.658;9.068;2022-08-06T06:07:44;5.35;;;2.63;;
15595;SDS011;7898;48.658;9.068;2022-08-06T06:10:11;4.07;;;2.28;;
15595;SDS011;7898;48.658;9.068;2022-08-06T06:12:40;4.45;;;2.90;;
15595;SDS011;7898;48.658;9.068;2022-08-06T06:15:09;6.35;;;2.08;;
15595;SDS011;7898;48.658;9.068;2022-08-06T06:20:32;5.10;;;2.58;;
15595;SDS011;7898;48.658;9.068;2022-08-06T06:23:08;3.25;;;2.00;;
15595;SDS011;7898;48.658;9.068;2022-08-06T06:25:40;6.45;;;2.75;;
15595;SDS011;7898;48.658;9.068;2022-08-06T06:28:13;6.50;;;2.20;;
15595;SDS011;7898;48.658;9.068;2022-08-06T06:30:50;4.03;;;2.15;;
15595;SDS011;7898;48.658;9.068;2022-08-06T06:33:27;5.63;;;2.63;;
15595;SDS011;7898;48.658;9.068;2022-08-06T06:36:02;2.60;;;2.40;;
15595;SDS011;7898;48.658;9.068;2022-08-06T06:38:36;2.60;;;2.22;;
15595;SDS011;7898;48.658;9.068;2022-08-06T06:41:09;4.50;;;2.40;;
15595;SDS011;7898;48.658;9.068;2022-08-06T06:43:43;3.42;;;2.30;;
15595;SDS011;7898;48.658;9.068;2022-08-06T06:46:23;3.85;;;2.17;;
15595;SDS011;7898;48.658;9.068;2022-08-06T06:48:56;4.85;;;2.25;;
15595;SDS011;7898;48.658;9.068;2022-08-06T06:51:36;3.05;;;2.35;;
15595;SDS011;7898;48.658;9.068;2022-08-06T06:54:08;2.70;;;1.88;;
15595;SDS011;7898;48.658;9.068;2022-08-06T06:56:39;3.25;;;2.13;;
15595;SDS011;7898;48.658;9.068;2022-08-06T06:59:11;3.05;;;2.30;;
15595;SDS011;7898;48.658;9.068;2022-08-06T07:01:41;3.45;;;2.15;;
15595;SDS011;7898;48.658;9.068;2022-08-06T07:04:13;2.97;;;2.20;;
15595;SDS011;7898;48.658;9.068;2022-08-06T07:06:41;3.10;;;2.25;;
15595;SDS011;7898;48.658;9.068;2022-08-06T07:09:14;3.35;;;2.58;;
15595;SDS011;7898;48.658;9.068;2022-08-06T07:11:43;3.30;;;2.35;;
15595;SDS011;7898;48.658;9.068;2022-08-06T07:14:10;2.50;;;2.30;;
15595;SDS011;7898;48.658;9.068;2022-08-06T07:16:39;2.40;;;2.00;;
15595;SDS011;7898;48.658;9.068;2022-08-06T07:19:09;3.55;;;2.10;;
15595;SDS011;7898;48.658;9.068;2022-08-06T07:21:39;4.03;;;2.58;;
15595;SDS011;7898;48.658;9.068;2022-08-06T07:24:08;4.78;;;2.45;;
15595;SDS011;7898;48.658;9.068;2022-08-06T07:26:37;2.85;;;2.00;;
15595;SDS011;7898;48.658;9.068;2022-08-06T07:29:04;4.88;;;2.47;;
15595;SDS011;7898;48.658;9.068;2022-08-06T07:31:34;4.30;;;2.20;;
15595;SDS011;7898;48.658;9.068;2022-08-06T07:34:02;2.40;;;2.20;;
15595;SDS011;7898;48.658;9.068;2022-08-06T07:36:30;3.55;;;2.33;;
15595;SDS011;7898;48.658;9.068;2022-08-06T07:39:01;2.30;;;2.10;;
15595;SDS011;7898;48.658;9.068;2022-08-06T07:41:29;2.42;;;2.22;;
15595;SDS011;7898;48.658;9.068;2022-08-06T07:43:59;4.80;;;2.65;;
15595;SDS011;7898;48.658;9.068;2022-08-06T07:46:31;3.50;;;2.30;;
15595;SDS011;7898;48.658;9.068;2022-08-06T07:49:04;2.67;;;2.20;;
15595;SDS011;7898;48.658;9.068;2022-08-06T07:51:33;3.00;;;2.67;;
15595;SDS011;7898;48.658;9.068;2022-08-06T07:54:05;2.78;;;2.38;;
15595;SDS011;7898;48.658;9.068;2022-08-06T07:56:34;3.75;;;2.63;;
15595;SDS011;7898;48.658;9.068;2022-08-06T07:59:03;2.72;;;2.30;;
15595;SDS011;7898;48.658;9.068;2022-08-06T08:01:31;4.18;;;2.83;;
15595;SDS011;7898;48.658;9.068;2022-08-06T08:03:59;2.83;;;2.60;;
15595;SDS011;7898;48.658;9.068;2022-08-06T08:06:44;4.30;;;2.58;;
15595;SDS011;7898;48.658;9.068;2022-08-06T08:09:13;4.25;;;2.50;;
15595;SDS011;7898;48.658;9.068;2022-08-06T08:11:41;3.15;;;2.58;;
15595;SDS011;7898;48.658;9.068;2022-08-06T08:14:12;3.28;;;2.60;;
15595;SDS011;7898;48.658;9.068;2022-08-06T08:16:42;3.50;;;2.75;;
15595;SDS011;7898;48.658;9.068;2022-08-06T08:19:19;2.78;;;2.53;;
15595;SDS011;7898;48.658;9.068;2022-08-06T08:21:52;3.05;;;2.47;;
15595;SDS011;7898;48.658;9.068;2022-08-06T08:24:22;3.75;;;2.30;;
15595;SDS011;7898;48.658;9.068;2022-08-06T08:26:50;3.88;;;2.38;;
15595;SDS011;7898;48.658;9.068;2022-08-06T08:29:17;3.47;;;2.60;;
15595;SDS011;7898;48.658;9.068;2022-08-06T08:31:44;2.60;;;2.40;;
15595;SDS011;7898;48.658;9.068;2022-08-06T08:34:11;3.95;;;2.72;;
15595;SDS011;7898;48.658;9.068;2022-08-06T08:36:39;4.32;;;2.83;;
15595;SDS011;7898;48.658;9.068;2022-08-06T08:39:06;3.17;;;2.85;;
15595;SDS011;7898;48.658;9.068;2022-08-06T08:41:34;3.83;;;2.50;;
15595;SDS011;7898;48.658;9.068;2022-08-06T08:44:05;5.15;;;2.53;;
15595;SDS011;7898;48.658;9.068;2022-08-06T08:46:34;4.22;;;2.58;;
15595;SDS011;7898;48.658;9.068;2022-08-06T08:49:03;3.33;;;2.80;;
15595;SDS011;7898;48.658;9.068;2022-08-06T08:51:32;3.72;;;2.58;;
15595;SDS011;7898;48.658;9.068;2022-08-06T08:54:00;3.35;;;2.72;;
15595;SDS011;7898;48.658;9.068;2022-08-06T08:56:31;4.75;;;2.65;;
15595;SDS011;7898;48.658;9.068;2022-08-06T08:59:00;9.75;;;2.60;;
15595;SDS011;7898;48.658;9.068;2022-08-06T09:01:27;5.25;;;2.30;;
15595;SDS011;7898;48.658;9.068;2022-08-06T09:03:56;7.47;;;2.65;;
15595;SDS011;7898;48.658;9.068;2022-08-06T09:06:24;3.00;;;2.30;;
15595;SDS011;7898;48.658;9.068;2022-08-06T09:08:51;4.15;;;2.75;;
15595;SDS011;7898;48.658;9.068;2022-08-06T09:11:18;2.90;;;2.60;;
15595;SDS011;7898;48.658;9.068;2022-08-06T09:13:46;2.83;;;2.35;;
15595;SDS011;7898;48.658;9.068;2022-08-06T09:16:14;4.30;;;2.75;;
15595;SDS011;7898;48.658;9.068;2022-08-06T09:18:41;4.13;;;3.10;;
15595;SDS011;7898;48.658;9.068;2022-08-06T09:21:08;3.00;;;2.60;;
15595;SDS011;7898;48.658;9.068;2022-08-06T09:23:36;6.95;;;2.83;;
15595;SDS011;7898;48.658;9.068;2022-08-06T09:26:04;4.05;;;2.50;;
15595;SDS011;7898;48.658;9.068;2022-08-06T09:28:33;3.40;;;2.40;;
15595;SDS011;7898;48.658;9.068;2022-08-06T09:31:01;4.15;;;2.83;;
15595;SDS011;7898;48.658;9.068;2022-08-06T09:33:34;4.95;;;2.60;;
15595;SDS011;7898;48.658;9.068;2022-08-06T09:36:02;3.80;;;2.58;;
15595;SDS011;7898;48.658;9.068;2022-08-06T09:38:33;4.53;;;2.88;;
15595;SDS011;7898;48.658;9.068;2022-08-06T09:41:11;2.92;;;2.13;;
15595;SDS011;7898;48.658;9.068;2022-08-06T09:43:39;4.25;;;2.42;;
15595;SDS011;7898;48.658;9.068;2022-08-06T09:46:06;3.35;;;2.28;;
15595;SDS011;7898;48.658;9.068;2022-08-06T09:48:35;2.83;;;2.55;;
15595;SDS011;7898;48.658;9.068;2022-08-06T09:51:02;5.60;;;2.65;;
15595;SDS011;7898;48.658;9.068;2022-08-06T09:53:29;6.22;;;2.63;;
15595;SDS011;7898;48.658;9.068;2022-08-06T09:55:56;3.40;;;2.17;;
15595;SDS011;7898;48.658;9.068;2022-08-06T09:58:30;3.67;;;2.50;;
15595;SDS011;7898;48.658;9.068;2022-08-06T10:01:12;3.42;;;2.42;;
15595;SDS011;7898;48.658;9.068;2022-08-06T10:03:42;2.90;;;2.30;;
15595;SDS011;7898;48.658;9.068;2022-08-06T10:06:10;3.95;;;2.53;;
15595;SDS011;7898;48.658;9.068;2022-08-06T10:08:40;3.85;;;2.30;;
15595;SDS011;7898;48.658;9.068;2022-08-06T10:11:08;3.40;;;2.53;;
15595;SDS011;7898;48.658;9.068;2022-08-06T10:13:36;2.53;;;2.22;;
15595;SDS011;7898;48.658;9.068;2022-08-06T10:16:17;3.30;;;2.90;;
15595;SDS011;7898;48.658;9.068;2022-08-06T10:18:47;3.30;;;2.80;;
15595;SDS011;7898;48.658;9.068;2022-08-06T10:21:16;4.60;;;2.40;;
15595;SDS011;7898;48.658;9.068;2022-08-06T10:23:46;2.50;;;2.20;;
15595;SDS011;7898;48.658;9.068;2022-08-06T10:26:17;2.60;;;2.40;;
15595;SDS011;7898;48.658;9.068;2022-08-06T10:28:48;4.68;;;2.45;;
15595;SDS011;7898;48.658;9.068;2022-08-06T10:31:17;5.93;;;2.67;;
15595;SDS011;7898;48.658;9.068;2022-08-06T10:33:46;4.88;;;2.60;;
15595;SDS011;7898;48.658;9.068;2022-08-06T10:36:19;3.20;;;2.58;;
15595;SDS011;7898;48.658;9.068;2022-08-06T10:38:49;2.97;;;2.35;;
15595;SDS011;7898;48.658;9.068;2022-08-06T10:41:17;3.10;;;2.80;;
15595;SDS011;7898;48.658;9.068;2022-08-06T10:43:44;3.42;;;2.40;;
15595;SDS011;7898;48.658;9.068;2022-08-06T10:46:12;4.95;;;2.75;;
15595;SDS011;7898;48.658;9.068;2022-08-06T10:48:41;2.70;;;2.50;;
15595;SDS011;7898;48.658;9.068;2022-08-06T10:51:11;2.72;;;2.50;;
15595;SDS011;7898;48.658;9.068;2022-08-06T10:53:40;5.35;;;2.90;;
15595;SDS011;7898;48.658;9.068;2022-08-06T10:56:10;4.18;;;2.50;;
15595;SDS011;7898;48.658;9.068;2022-08-06T10:58:38;3.70;;;2.45;;
15595;SDS011;7898;48.658;9.068;2022-08-06T11:01:06;3.00;;;2.38;;
15595;SDS011;7898;48.658;9.068;2022-08-06T11:03:37;2.40;;;2.20;;
15595;SDS011;7898;48.658;9.068;2022-08-06T11:06:17;4.85;;;2.70;;
15595;SDS011;7898;48.658;9.068;2022-08-06T11:09:02;5.07;;;3.10;;
15595;SDS011;7898;48.658;9.068;2022-08-06T11:14:37;3.40;;;2.40;;
15595;SDS011;7898;48.658;9.068;2022-08-06T11:17:05;6.20;;;2.67;;
15595;SDS011;7898;48.658;9.068;2022-08-06T11:19:36;4.88;;;2.20;;
15595;SDS011;7898;48.658;9.068;2022-08-06T11:22:09;3.50;;;2.53;;
15595;SDS011;7898;48.658;9.068;2022-08-06T11:25:03;2.65;;;2.40;;
15595;SDS011;7898;48.658;9.068;2022-08-06T11:27:47;3.50;;;2.35;;
15595;SDS011;7898;48.658;9.068;2022-08-06T11:30:16;2.78;;;2.53;;
15595;SDS011;7898;48.658;9.068;2022-08-06T11:32:44;3.53;;;2.70;;
15595;SDS011;7898;48.658;9.068;2022-08-06T11:38:06;3.22;;;2.65;;
15595;SDS011;7898;48.658;9.068;2022-08-06T11:40:53;3.33;;;2.70;;
15595;SDS011;7898;48.658;9.068;2022-08-06T11:46:16;2.92;;;2.45;;
15595;SDS011;7898;48.658;9.068;2022-08-06T11:51:41;3.15;;;2.85;;
15595;SDS011;7898;48.658;9.068;2022-08-06T11:54:12;2.78;;;2.58;;
15595;SDS011;7898;48.658;9.068;2022-08-06T11:59:46;3.28;;;2.97;;
15595;SDS011;7898;48.658;9.068;2022-08-06T12:05:31;4.82;;;2.78;;
15595;SDS011;7898;48.658;9.068;2022-08-06T12:13:53;5.28;;;2.47;;
15595;SDS011;7898;48.658;9.068;2022-08-06T12:16:27;3.20;;;2.72;;
15595;SDS011;7898;48.658;9.068;2022-08-06T12:19:04;2.95;;;2.65;;
15595;SDS011;7898;48.658;9.068;2022-08-06T12:21:36;3.03;;;2.53;;
15595;SDS011;7898;48.658;9.068;2022-08-06T12:24:05;3.30;;;2.80;;
15595;SDS011;7898;48.658;9.068;2022-08-06T12:26:33;3.85;;;2.65;;
15595;SDS011;7898;48.658;9.068;2022-08-06T12:29:02;3.42;;;2.85;;
15595;SDS011;7898;48.658;9.068;2022-08-06T12:31:30;3.30;;;2.47;;
15595;SDS011;7898;48.658;9.068;2022-08-06T12:34:00;2.45;;;2.28;;
15595;SDS011;7898;48.658;9.068;2022-08-06T12:36:28;2.50;;;2.30;;
15595;SDS011;7898;48.658;9.068;2022-08-06T12:38:56;4.80;;;2.90;;
15595;SDS011;7898;48.658;9.068;2022-08-06T12:44:11;2.67;;;2.47;;
15595;SDS011;7898;48.658;9.068;2022-08-06T12:46:40;4.28;;;2.60;;
15595;SDS011;7898;48.658;9.068;2022-08-06T12:49:08;3.13;;;2.83;;
15595;SDS011;7898;48.658;9.068;2022-08-06T12:51:35;2.70;;;2.50;;
15595;SDS011;7898;48.658;9.068;2022-08-06T12:54:06;5.70;;;2.88;;
15595;SDS011;7898;48.658;9.068;2022-08-06T12:56:36;4.95;;;2.95;;
15595;SDS011;7898;48.658;9.068;2022-08-06T12:59:08;2.95;;;2.60;;
15595;SDS011;7898;48.658;9.068;2022-08-06T13:01:37;4.10;;;2.80;;
15595;SDS011;7898;48.658;9.068;2022-08-06T13:04:06;3.83;;;3.03;;
15595;SDS011;7898;48.658;9.068;2022-08-06T13:06:36;5.00;;;4.50;;
15595;SDS011;7898;48.658;9.068;2022-08-06T13:09:04;3.15;;;2.58;;
15595;SDS011;7898;48.658;9.068;2022-08-06T13:11:32;4.95;;;2.75;;
15595;SDS011;7898;48.658;9.068;2022-08-06T13:14:07;5.47;;;2.97;;
15595;SDS011;7898;48.658;9.068;2022-08-06T13:16:40;4.10;;;2.95;;
15595;SDS011;7898;48.658;9.068;2022-08-06T13:19:10;2.97;;;2.53;;
15595;SDS011;7898;48.658;9.068;2022-08-06T13:21:38;3.35;;;2.38;;
15595;SDS011;7898;48.658;9.068;2022-08-06T13:24:06;3.85;;;3.13;;
15595;SDS011;7898;48.658;9.068;2022-08-06T13:26:34;3.03;;;2.65;;
15595;SDS011;7898;48.658;9.068;2022-08-06T13:29:16;3.65;;;2.80;;
15595;SDS011;7898;48.658;9.068;2022-08-06T13:31:45;2.75;;;2.55;;
15595;SDS011;7898;48.658;9.068;2022-08-06T13:34:13;4.88;;;2.40;;
15595;SDS011;7898;48.658;9.068;2022-08-06T13:36:42;3.55;;;2.80;;
15595;SDS011;7898;48.658;9.068;2022-08-06T13:39:17;4.90;;;2.72;;
15595;SDS011;7898;48.658;9.068;2022-08-06T13:42:01;3.20;;;2.90;;
15595;SDS011;7898;48.658;9.068;2022-08-06T13:44:34;3.45;;;2.60;;
15595;SDS011;7898;48.658;9.068;2022-08-06T13:47:03;3.15;;;2.60;;
15595;SDS011;7898;48.658;9.068;2022-08-06T13:49:31;3.30;;;3.00;;
15595;SDS011;7898;48.658;9.068;2022-08-06T13:51:58;3.25;;;2.60;;
15595;SDS011;7898;48.658;9.068;2022-08-06T13:54:26;4.55;;;2.60;;
15595;SDS011;7898;48.658;9.068;2022-08-06T13:56:53;3.33;;;2.45;;
15595;SDS011;7898;48.658;9.068;2022-08-06T13:59:23;2.83;;;2.63;;
15595;SDS011;7898;48.658;9.068;2022-08-06T14:01:52;4.18;;;2.63;;
15595;SDS011;7898;48.658;9.068;2022-08-06T14:04:20;2.47;;;2.28;;
15595;SDS011;7898;48.658;9.068;2022-08-06T14:06:48;4.28;;;2.58;;
15595;SDS011;7898;48.658;9.068;2022-08-06T14:09:17;4.18;;;2.70;;
15595;SDS011;7898;48.658;9.068;2022-08-06T14:11:45;2.70;;;2.50;;
15595;SDS011;7898;48.658;9.068;2022-08-06T14:14:12;3.25;;;2.70;;
15595;SDS011;7898;48.658;9.068;2022-08-06T14:16:39;3.80;;;2.80;;
15595;SDS011;7898;48.658;9.068;2022-08-06T14:19:08;3.42;;;2.72;;
15595;SDS011;7898;48.658;9.068;2022-08-06T14:21:35;4.53;;;2.28;;
15595;SDS011;7898;48.658;9.068;2022-08-06T14:24:02;6.10;;;2.42;;
15595;SDS011;7898;48.658;9.068;2022-08-06T14:26:29;3.35;;;2.25;;
15595;SDS011;7898;48.658;9.068;2022-08-06T14:28:56;4.68;;;2.58;;
15595;SDS011;7898;48.658;9.068;2022-08-06T14:31:23;4.20;;;2.50;;
15595;SDS011;7898;48.658;9.068;2022-08-06T14:33:50;2.33;;;2.20;;
15595;SDS011;7898;48.658;9.068;2022-08-06T14:36:19;2.97;;;2.10;;
15595;SDS011;7898;48.658;9.068;2022-08-06T14:38:46;3.28;;;2.92;;
15595;SDS011;7898;48.658;9.068;2022-08-06T14:41:13;3.10;;;2.63;;
15595;SDS011;7898;48.658;9.068;2022-08-06T14:44:00;3.63;;;2.70;;
15595;SDS011;7898;48.658;9.068;2022-08-06T14:46:44;3.20;;;2.58;;
15595;SDS011;7898;48.658;9.068;2022-08-06T14:49:11;3.70;;;2.85;;
15595;SDS011;7898;48.658;9.068;2022-08-06T14:51:40;4.47;;;3.13;;
15595;SDS011;7898;48.658;9.068;2022-08-06T14:54:07;3.67;;;2.40;;
15595;SDS011;7898;48.658;9.068;2022-08-06T14:56:34;2.90;;;2.70;;
15595;SDS011;7898;48.658;9.068;2022-08-06T14:59:01;3.35;;;2.40;;
15595;SDS011;7898;48.658;9.068;2022-08-06T15:01:28;6.30;;;2.47;;
15595;SDS011;7898;48.658;9.068;2022-08-06T15:03:54;2.83;;;2.10;;
15595;SDS011;7898;48.658;9.068;2022-08-06T15:06:22;5.03;;;2.47;;
15595;SDS011;7898;48.658;9.068;2022-08-06T15:08:50;3.40;;;2.10;;
15595;SDS011;7898;48.658;9.068;2022-08-06T15:11:17;2.67;;;2.47;;
15595;SDS011;7898;48.658;9.068;2022-08-06T15:13:44;2.90;;;1.95;;
15595;SDS011;7898;48.658;9.068;2022-08-06T15:16:11;2.95;;;2.65;;
15595;SDS011;7898;48.658;9.068;2022-08-06T15:18:38;3.55;;;2.60;;
15595;SDS011;7898;48.658;9.068;2022-08-06T15:21:08;2.78;;;2.42;;
15595;SDS011;7898;48.658;9.068;2022-08-06T15:23:35;2.50;;;2.30;;
15595;SDS011;7898;48.658;9.068;2022-08-06T15:26:03;3.00;;;2.15;;
15595;SDS011;7898;48.658;9.068;2022-08-06T15:28:30;3.22;;;2.30;;
15595;SDS011;7898;48.658;9.068;2022-08-06T15:30:57;4.80;;;2.20;;
15595;SDS011;7898;48.658;9.068;2022-08-06T15:33:25;3.13;;;2.35;;
15595;SDS011;7898;48.658;9.068;2022-08-06T15:35:53;3.17;;;2.08;;
15595;SDS011;7898;48.658;9.068;2022-08-06T15:38:20;3.75;;;2.08;;
15595;SDS011;7898;48.658;9.068;2022-08-06T15:40:47;2.88;;;2.10;;
15595;SDS011;7898;48.658;9.068;2022-08-06T15:43:15;2.10;;;1.90;;
15595;SDS011;7898;48.658;9.068;2022-08-06T15:45:42;3.55;;;2.55;;